createdAt,value
2017-11-22T00:00:41.847Z,954.95
2017-11-22T00:01:41.869Z,954.97
2017-11-22T00:02:41.882Z,954.92
2017-11-22T00:03:41.900Z,954.9
2017-11-22T00:04:41.936Z,954.97
2017-11-22T00:05:41.935Z,954.96
2017-11-22T00:06:41.953Z,954.94
2017-11-22T00:07:41.991Z,954.97
2017-11-22T00:08:41.990Z,954.95
2017-11-22T00:09:42.008Z,954.96
2017-11-22T00:10:42.035Z,954.88
2017-11-22T00:11:42.095Z,954.94
2017-11-22T00:12:42.061Z,954.93
2017-11-22T00:13:42.079Z,954.91
2017-11-22T00:14:42.105Z,954.91
2017-11-22T00:15:42.116Z,954.92
2017-11-22T00:16:42.132Z,954.95
2017-11-22T00:17:42.151Z,954.91
2017-11-22T00:18:42.168Z,954.87
2017-11-22T00:19:42.185Z,954.88
2017-11-22T00:20:42.204Z,954.91
2017-11-22T00:21:42.221Z,954.87
2017-11-22T00:22:42.240Z,954.86
2017-11-22T00:23:42.257Z,954.86
2017-11-22T00:24:42.273Z,954.88
2017-11-22T00:25:42.292Z,954.84
2017-11-22T00:26:42.369Z,954.8
2017-11-22T00:27:42.328Z,954.84
2017-11-22T00:28:42.345Z,954.81
2017-11-22T00:29:42.365Z,954.83
2017-11-22T00:30:42.382Z,954.82
2017-11-22T00:31:42.399Z,954.78
2017-11-22T00:32:42.424Z,954.8
2017-11-22T00:33:42.434Z,954.77
2017-11-22T00:34:42.455Z,954.74
2017-11-22T00:35:42.471Z,954.75
2017-11-22T00:36:42.487Z,954.74
2017-11-22T00:37:42.509Z,954.74
2017-11-22T00:38:42.523Z,954.73
2017-11-22T00:39:42.541Z,954.74
2017-11-22T00:40:42.569Z,954.74
2017-11-22T00:41:42.577Z,954.7
2017-11-22T00:42:42.593Z,954.76
2017-11-22T00:43:42.611Z,954.76
2017-11-22T00:44:42.631Z,954.69
2017-11-22T00:45:42.654Z,954.7
2017-11-22T00:46:42.664Z,954.7
2017-11-22T00:47:42.682Z,954.7
2017-11-22T00:48:42.700Z,954.68
2017-11-22T00:49:42.717Z,954.71
2017-11-22T00:50:42.735Z,954.65
2017-11-22T00:51:42.754Z,954.63
2017-11-22T00:52:42.771Z,954.64
2017-11-22T00:53:42.788Z,954.65
2017-11-22T00:54:42.811Z,954.61
2017-11-22T00:55:42.831Z,954.59
2017-11-22T00:56:42.856Z,954.62
2017-11-22T00:57:42.860Z,954.65
2017-11-22T00:58:42.929Z,954.65
2017-11-22T00:59:42.914Z,954.66
2017-11-22T01:00:42.914Z,954.65
2017-11-22T01:01:42.930Z,954.67
2017-11-22T01:02:42.949Z,954.7
2017-11-22T01:03:42.965Z,954.67
2017-11-22T01:04:42.983Z,954.68
2017-11-22T01:05:43.001Z,954.69
2017-11-22T01:06:43.020Z,954.71
2017-11-22T01:07:43.037Z,954.7
2017-11-22T01:08:43.055Z,954.74
2017-11-22T01:09:43.073Z,954.76
2017-11-22T01:10:43.094Z,954.73
2017-11-22T01:11:43.106Z,954.7
2017-11-22T01:12:43.126Z,954.68
2017-11-22T01:13:43.142Z,954.76
2017-11-22T01:14:43.219Z,954.72
2017-11-22T01:15:43.186Z,954.76
2017-11-22T01:16:43.196Z,954.71
2017-11-22T01:17:43.213Z,954.74
2017-11-22T01:18:43.231Z,954.69
2017-11-22T01:19:43.253Z,954.75
2017-11-22T01:20:43.264Z,954.73
2017-11-22T01:21:43.282Z,954.76
2017-11-22T01:22:43.302Z,954.71
2017-11-22T01:23:43.317Z,954.73
2017-11-22T01:24:43.336Z,954.68
2017-11-22T01:25:43.352Z,954.64
2017-11-22T01:26:43.370Z,954.67
2017-11-22T01:27:43.388Z,954.66
2017-11-22T01:28:43.405Z,954.65
2017-11-22T01:29:43.421Z,954.67
2017-11-22T01:30:43.439Z,954.67
2017-11-22T01:31:43.456Z,954.65
2017-11-22T01:32:43.474Z,954.61
2017-11-22T01:33:43.490Z,954.7
2017-11-22T01:34:43.509Z,954.64
2017-11-22T01:35:43.527Z,954.66
2017-11-22T01:36:43.551Z,954.64
2017-11-22T01:37:43.561Z,954.65
2017-11-22T01:38:43.578Z,954.65
2017-11-22T01:39:43.599Z,954.67
2017-11-22T01:40:43.613Z,954.64
2017-11-22T01:41:43.629Z,954.67
2017-11-22T01:42:43.651Z,954.65
2017-11-22T01:43:43.665Z,954.65
2017-11-22T01:44:43.689Z,954.7
2017-11-22T01:45:43.700Z,954.63
2017-11-22T01:46:43.718Z,954.65
2017-11-22T01:47:43.736Z,954.66
2017-11-22T01:48:43.803Z,954.6
2017-11-22T01:49:43.770Z,954.66
2017-11-22T01:50:43.787Z,954.58
2017-11-22T01:51:43.811Z,954.62
2017-11-22T01:52:43.827Z,954.59
2017-11-22T01:53:43.840Z,954.6
2017-11-22T01:54:43.858Z,954.54
2017-11-22T01:55:43.875Z,954.55
2017-11-22T01:56:43.892Z,954.52
2017-11-22T01:57:43.910Z,954.55
2017-11-22T01:58:43.942Z,954.55
2017-11-22T01:59:43.944Z,954.53
2017-11-22T02:00:43.961Z,954.53
2017-11-22T02:01:43.977Z,954.56
2017-11-22T02:02:43.995Z,954.59
2017-11-22T02:03:44.013Z,954.53
2017-11-22T02:04:44.032Z,954.55
2017-11-22T02:05:44.048Z,954.53
2017-11-22T02:06:44.064Z,954.49
2017-11-22T02:07:44.133Z,954.47
2017-11-22T02:08:44.100Z,954.46
2017-11-22T02:09:44.116Z,954.46
2017-11-22T02:10:44.133Z,954.47
2017-11-22T02:11:44.154Z,954.46
2017-11-22T02:12:44.183Z,954.45
2017-11-22T02:13:44.188Z,954.45
2017-11-22T02:14:44.203Z,954.47
2017-11-22T02:15:44.321Z,954.42
2017-11-22T02:16:44.241Z,954.43
2017-11-22T02:17:44.255Z,954.4
2017-11-22T02:18:44.274Z,954.45
2017-11-22T02:19:44.291Z,954.45
2017-11-22T02:20:44.308Z,954.41
2017-11-22T02:21:44.324Z,954.36
2017-11-22T02:22:44.363Z,954.35
2017-11-22T02:23:44.362Z,954.33
2017-11-22T02:24:44.376Z,954.34
2017-11-22T02:25:44.445Z,954.32
2017-11-22T02:26:44.412Z,954.31
2017-11-22T02:27:44.430Z,954.33
2017-11-22T02:28:44.447Z,954.28
2017-11-22T02:29:44.464Z,954.29
2017-11-22T02:30:44.483Z,954.29
2017-11-22T02:31:44.500Z,954.25
2017-11-22T02:32:44.517Z,954.25
2017-11-22T02:33:44.535Z,954.23
2017-11-22T02:34:44.551Z,954.23
2017-11-22T02:35:44.574Z,954.27
2017-11-22T02:36:44.585Z,954.24
2017-11-22T02:37:44.604Z,954.27
2017-11-22T02:38:44.625Z,954.32
2017-11-22T02:39:44.637Z,954.25
2017-11-22T02:40:44.657Z,954.25
2017-11-22T02:41:44.723Z,954.2
2017-11-22T02:42:44.691Z,954.24
2017-11-22T02:43:44.706Z,954.24
2017-11-22T02:44:44.725Z,954.21
2017-11-22T02:45:44.743Z,954.24
2017-11-22T02:46:44.760Z,954.22
2017-11-22T02:47:44.778Z,954.24
2017-11-22T02:48:44.795Z,954.22
2017-11-22T02:49:44.814Z,954.24
2017-11-22T02:50:44.829Z,954.21
2017-11-22T02:51:44.847Z,954.19
2017-11-22T02:52:44.867Z,954.2
2017-11-22T02:53:44.880Z,954.23
2017-11-22T02:54:44.899Z,954.22
2017-11-22T02:55:44.915Z,954.22
2017-11-22T02:56:44.984Z,954.22
2017-11-22T02:57:44.949Z,954.23
2017-11-22T02:58:44.969Z,954.27
2017-11-22T02:59:44.985Z,954.25
2017-11-22T03:00:45.003Z,954.26
2017-11-22T03:01:45.021Z,954.25
2017-11-22T03:02:45.037Z,954.24
2017-11-22T03:03:45.054Z,954.27
2017-11-22T03:04:45.071Z,954.29
2017-11-22T03:05:45.112Z,954.26
2017-11-22T03:06:45.106Z,954.28
2017-11-22T03:07:45.123Z,954.24
2017-11-22T03:08:45.141Z,954.19
2017-11-22T03:09:45.158Z,954.21
2017-11-22T03:10:45.173Z,954.25
2017-11-22T03:11:45.241Z,954.24
2017-11-22T03:12:45.209Z,954.21
2017-11-22T03:13:45.232Z,954.22
2017-11-22T03:14:45.245Z,954.23
2017-11-22T03:15:45.266Z,954.19
2017-11-22T03:16:45.277Z,954.18
2017-11-22T03:17:45.296Z,954.22
2017-11-22T03:18:45.321Z,954.2
2017-11-22T03:19:45.330Z,954.22
2017-11-22T03:20:45.346Z,954.23
2017-11-22T03:21:45.364Z,954.22
2017-11-22T03:22:45.380Z,954.27
2017-11-22T03:23:45.397Z,954.2
2017-11-22T03:24:45.415Z,954.21
2017-11-22T03:25:45.435Z,954.22
2017-11-22T03:26:45.449Z,954.22
2017-11-22T03:27:45.469Z,954.2
2017-11-22T03:28:45.636Z,954.22
2017-11-22T03:29:45.500Z,954.22
2017-11-22T03:30:45.520Z,954.24
2017-11-22T03:31:45.539Z,954.2
2017-11-22T03:32:45.554Z,954.24
2017-11-22T03:33:45.570Z,954.23
2017-11-22T03:34:45.591Z,954.24
2017-11-22T03:35:45.605Z,954.24
2017-11-22T03:36:45.625Z,954.25
2017-11-22T03:37:45.641Z,954.27
2017-11-22T03:38:45.659Z,954.25
2017-11-22T03:39:45.675Z,954.28
2017-11-22T03:40:45.692Z,954.27
2017-11-22T03:41:45.710Z,954.32
2017-11-22T03:42:45.750Z,954.29
2017-11-22T03:43:45.746Z,954.31
2017-11-22T03:44:45.763Z,954.26
2017-11-22T03:45:45.780Z,954.29
2017-11-22T03:46:45.798Z,954.32
2017-11-22T03:47:45.866Z,954.33
2017-11-22T03:48:45.833Z,954.34
2017-11-22T03:49:45.851Z,954.3
2017-11-22T03:50:45.871Z,954.27
2017-11-22T03:51:45.884Z,954.29
2017-11-22T03:52:45.903Z,954.24
2017-11-22T03:53:45.920Z,954.25
2017-11-22T03:54:45.966Z,954.28
2017-11-22T03:55:45.955Z,954.31
2017-11-22T03:56:45.973Z,954.35
2017-11-22T03:57:45.993Z,954.33
2017-11-22T03:58:46.009Z,954.38
2017-11-22T03:59:46.029Z,954.33
2017-11-22T04:00:46.043Z,954.37
2017-11-22T04:01:46.060Z,954.36
2017-11-22T04:02:46.127Z,954.38
2017-11-22T04:03:46.096Z,954.35
2017-11-22T04:04:46.113Z,954.37
2017-11-22T04:05:46.133Z,954.36
2017-11-22T04:06:46.148Z,954.4
2017-11-22T04:07:46.167Z,954.42
2017-11-22T04:08:46.181Z,954.42
2017-11-22T04:09:46.201Z,954.43
2017-11-22T04:10:46.218Z,954.47
2017-11-22T04:11:46.237Z,954.44
2017-11-22T04:12:46.251Z,954.45
2017-11-22T04:13:46.270Z,954.39
2017-11-22T04:14:46.287Z,954.37
2017-11-22T04:15:46.304Z,954.38
2017-11-22T04:16:46.323Z,954.38
2017-11-22T04:17:46.389Z,954.38
2017-11-22T04:18:46.356Z,954.36
2017-11-22T04:19:46.386Z,954.41
2017-11-22T04:20:46.393Z,954.36
2017-11-22T04:21:46.408Z,954.35
2017-11-22T04:22:47.429Z,954.31
2017-11-22T04:23:46.445Z,954.31
2017-11-22T04:24:46.462Z,954.3
2017-11-22T04:25:46.478Z,954.31
2017-11-22T04:26:46.497Z,954.33
2017-11-22T04:27:46.515Z,954.33
2017-11-22T04:28:46.531Z,954.35
2017-11-22T04:29:46.548Z,954.34
2017-11-22T04:30:46.565Z,954.37
2017-11-22T04:31:46.584Z,954.4
2017-11-22T04:32:46.649Z,954.35
2017-11-22T04:33:46.618Z,954.37
2017-11-22T04:34:46.635Z,954.36
2017-11-22T04:35:46.652Z,954.42
2017-11-22T04:36:46.669Z,954.38
2017-11-22T04:37:46.688Z,954.4
2017-11-22T04:38:46.705Z,954.34
2017-11-22T04:39:46.721Z,954.33
2017-11-22T04:40:46.740Z,954.32
2017-11-22T04:41:46.759Z,954.33
2017-11-22T04:42:46.773Z,954.3
2017-11-22T04:43:46.791Z,954.27
2017-11-22T04:44:46.808Z,954.28
2017-11-22T04:45:46.825Z,954.25
2017-11-22T04:46:46.841Z,954.29
2017-11-22T04:47:46.859Z,954.27
2017-11-22T04:48:46.899Z,954.26
2017-11-22T04:49:46.893Z,954.25
2017-11-22T04:50:46.910Z,954.23
2017-11-22T04:51:46.979Z,954.22
2017-11-22T04:52:46.946Z,954.28
2017-11-22T04:53:46.963Z,954.25
2017-11-22T04:54:46.980Z,954.27
2017-11-22T04:55:46.998Z,954.25
2017-11-22T04:56:47.121Z,954.23
2017-11-22T04:57:47.040Z,954.25
2017-11-22T04:58:47.047Z,954.19
2017-11-22T04:59:47.065Z,954.23
2017-11-22T05:00:47.082Z,954.22
2017-11-22T05:01:47.099Z,954.16
2017-11-22T05:02:47.117Z,954.19
2017-11-22T05:03:47.134Z,954.23
2017-11-22T05:04:47.149Z,954.24
2017-11-22T05:05:47.168Z,954.22
2017-11-22T05:06:47.184Z,954.23
2017-11-22T05:07:47.201Z,954.23
2017-11-22T05:08:47.217Z,954.2
2017-11-22T05:09:47.284Z,954.2
2017-11-22T05:10:47.253Z,954.17
2017-11-22T05:11:47.268Z,954.2
2017-11-22T05:12:47.285Z,954.18
2017-11-22T05:13:47.303Z,954.15
2017-11-22T05:14:47.318Z,954.19
2017-11-22T05:15:47.336Z,954.2
2017-11-22T05:16:47.351Z,954.22
2017-11-22T05:17:47.373Z,954.25
2017-11-22T05:18:47.388Z,954.27
2017-11-22T05:19:47.403Z,954.27
2017-11-22T05:20:47.420Z,954.31
2017-11-22T05:21:47.438Z,954.22
2017-11-22T05:22:47.461Z,954.22
2017-11-22T05:23:47.471Z,954.21
2017-11-22T05:24:47.537Z,954.17
2017-11-22T05:25:47.505Z,954.18
2017-11-22T05:26:47.521Z,954.13
2017-11-22T05:27:47.537Z,954.15
2017-11-22T05:28:47.554Z,954.14
2017-11-22T05:29:47.570Z,954.13
2017-11-22T05:30:47.588Z,954.15
2017-11-22T05:31:47.607Z,954.19
2017-11-22T05:32:47.621Z,954.18
2017-11-22T05:33:47.640Z,954.14
2017-11-22T05:34:47.653Z,954.21
2017-11-22T05:35:47.671Z,954.22
2017-11-22T05:36:47.686Z,954.22
2017-11-22T05:37:47.703Z,954.24
2017-11-22T05:38:47.722Z,954.19
2017-11-22T05:39:47.788Z,954.2
2017-11-22T05:40:47.752Z,954.2
2017-11-22T05:41:47.769Z,954.2
2017-11-22T05:42:47.785Z,954.18
2017-11-22T05:43:47.803Z,954.23
2017-11-22T05:44:47.818Z,954.23
2017-11-22T05:45:47.836Z,954.24
2017-11-22T05:46:47.853Z,954.24
2017-11-22T05:47:47.869Z,954.19
2017-11-22T05:48:47.883Z,954.26
2017-11-22T05:49:47.917Z,954.26
2017-11-22T05:50:47.917Z,954.26
2017-11-22T05:51:47.935Z,954.3
2017-11-22T05:52:47.951Z,954.23
2017-11-22T05:53:47.968Z,954.26
2017-11-22T05:54:48.034Z,954.27
2017-11-22T05:55:48.015Z,954.24
2017-11-22T05:56:48.016Z,954.24
2017-11-22T05:57:48.035Z,954.24
2017-11-22T05:58:48.057Z,954.23
2017-11-22T05:59:48.167Z,954.2
2017-11-22T06:00:48.081Z,954.2
2017-11-22T06:01:48.103Z,954.22
2017-11-22T06:02:48.115Z,954.22
2017-11-22T06:03:48.131Z,954.17
2017-11-22T06:04:48.246Z,954.23
2017-11-22T06:05:48.166Z,954.17
2017-11-22T06:06:48.181Z,954.17
2017-11-22T06:07:48.199Z,954.2
2017-11-22T06:08:48.212Z,954.13
2017-11-22T06:09:48.281Z,954.1
2017-11-22T06:10:48.245Z,954.08
2017-11-22T06:11:48.262Z,954.1
2017-11-22T06:12:48.279Z,954.08
2017-11-22T06:13:48.295Z,954.07
2017-11-22T06:14:48.311Z,954.05
2017-11-22T06:15:48.328Z,954.06
2017-11-22T06:16:48.349Z,953.99
2017-11-22T06:17:48.367Z,954.05
2017-11-22T06:18:48.378Z,954.04
2017-11-22T06:19:48.393Z,954.08
2017-11-22T06:20:48.410Z,954.04
2017-11-22T06:21:48.427Z,954.02
2017-11-22T06:22:48.444Z,954.06
2017-11-22T06:23:48.464Z,954.07
2017-11-22T06:24:48.530Z,954.08
2017-11-22T06:25:48.492Z,954.08
2017-11-22T06:26:48.510Z,954.09
2017-11-22T06:27:48.528Z,954.03
2017-11-22T06:28:48.544Z,954.07
2017-11-22T06:29:48.561Z,954.08
2017-11-22T06:30:48.577Z,954.08
2017-11-22T06:31:48.594Z,954.11
2017-11-22T06:32:48.608Z,954.11
2017-11-22T06:33:48.627Z,954.1
2017-11-22T06:34:48.643Z,954.1
2017-11-22T06:35:48.659Z,954.11
2017-11-22T06:36:48.676Z,954.14
2017-11-22T06:37:48.692Z,954.13
2017-11-22T06:38:48.709Z,954.12
2017-11-22T06:39:48.776Z,954.09
2017-11-22T06:40:48.746Z,954.09
2017-11-22T06:41:48.759Z,954.1
2017-11-22T06:42:48.777Z,954.12
2017-11-22T06:43:48.794Z,954.09
2017-11-22T06:44:48.808Z,954.13
2017-11-22T06:45:48.825Z,954.1
2017-11-22T06:46:48.843Z,954.16
2017-11-22T06:47:48.859Z,954.12
2017-11-22T06:48:48.879Z,954.12
2017-11-22T06:49:48.896Z,954.1
2017-11-22T06:50:48.907Z,954.11
2017-11-22T06:51:48.932Z,954.08
2017-11-22T06:52:48.941Z,954.05
2017-11-22T06:53:48.959Z,954.06
2017-11-22T06:54:49.027Z,954.04
2017-11-22T06:55:48.991Z,954.05
2017-11-22T06:56:49.008Z,954.04
2017-11-22T06:57:49.025Z,954.01
2017-11-22T06:58:49.041Z,954.03
2017-11-22T06:59:49.058Z,954.09
2017-11-22T07:00:49.073Z,954.05
2017-11-22T07:01:49.090Z,954.04
2017-11-22T07:02:49.125Z,954.07
2017-11-22T07:03:49.124Z,954.1
2017-11-22T07:04:49.141Z,954.09
2017-11-22T07:05:49.157Z,954.06
2017-11-22T07:06:49.172Z,954.06
2017-11-22T07:07:49.188Z,954.06
2017-11-22T07:08:49.206Z,954.1
2017-11-22T07:09:49.224Z,954.12
2017-11-22T07:10:49.238Z,954.1
2017-11-22T07:11:49.305Z,954.11
2017-11-22T07:12:49.270Z,954.08
2017-11-22T07:13:49.289Z,954.1
2017-11-22T07:14:49.304Z,954.1
2017-11-22T07:15:49.322Z,954.09
2017-11-22T07:16:49.358Z,954.1
2017-11-22T07:17:49.361Z,954.12
2017-11-22T07:18:49.370Z,954.13
2017-11-22T07:19:49.394Z,954.14
2017-11-22T07:20:49.406Z,954.14
2017-11-22T07:21:49.421Z,954.12
2017-11-22T07:22:49.438Z,954.14
2017-11-22T07:23:49.455Z,954.12
2017-11-22T07:24:49.470Z,954.13
2017-11-22T07:25:49.487Z,954.15
2017-11-22T07:26:49.506Z,954.12
2017-11-22T07:27:49.521Z,954.15
2017-11-22T07:28:49.737Z,954.16
2017-11-22T07:29:49.555Z,954.09
2017-11-22T07:30:49.572Z,954.1
2017-11-22T07:31:49.589Z,954.12
2017-11-22T07:32:49.605Z,954.17
2017-11-22T07:33:49.624Z,954.22
2017-11-22T07:34:49.639Z,954.15
2017-11-22T07:35:49.655Z,954.16
2017-11-22T07:36:49.673Z,954.2
2017-11-22T07:37:49.690Z,954.18
2017-11-22T07:38:49.712Z,954.17
2017-11-22T07:39:49.721Z,954.21
2017-11-22T07:40:49.742Z,954.16
2017-11-22T07:41:49.760Z,954.23
2017-11-22T07:42:49.777Z,954.21
2017-11-22T07:43:49.844Z,954.24
2017-11-22T07:44:49.811Z,954.21
2017-11-22T07:45:49.827Z,954.23
2017-11-22T07:46:49.846Z,954.25
2017-11-22T07:47:49.867Z,954.22
2017-11-22T07:48:49.880Z,954.23
2017-11-22T07:49:49.899Z,954.26
2017-11-22T07:50:49.923Z,954.26
2017-11-22T07:51:49.933Z,954.26
2017-11-22T07:52:49.951Z,954.25
2017-11-22T07:53:49.968Z,954.23
2017-11-22T07:54:49.988Z,954.22
2017-11-22T07:55:50.005Z,954.24
2017-11-22T07:56:50.021Z,954.24
2017-11-22T07:57:50.038Z,954.24
2017-11-22T07:58:50.058Z,954.21
2017-11-22T07:59:50.076Z,954.28
2017-11-22T08:00:50.093Z,954.24
2017-11-22T08:01:50.109Z,954.24
2017-11-22T08:02:50.129Z,954.22
2017-11-22T08:03:50.147Z,954.24
2017-11-22T08:04:50.167Z,954.24
2017-11-22T08:05:50.186Z,954.17
2017-11-22T08:06:50.204Z,954.2
2017-11-22T08:07:50.224Z,954.22
2017-11-22T08:08:50.239Z,954.3
2017-11-22T08:09:50.257Z,954.23
2017-11-22T08:10:50.277Z,954.25
2017-11-22T08:11:50.292Z,954.27
2017-11-22T08:12:50.313Z,954.23
2017-11-22T08:13:50.331Z,954.27
2017-11-22T08:14:50.348Z,954.25
2017-11-22T08:15:50.367Z,954.27
2017-11-22T08:16:50.386Z,954.27
2017-11-22T08:17:50.404Z,954.27
2017-11-22T08:18:50.474Z,954.23
2017-11-22T08:19:50.442Z,954.24
2017-11-22T08:20:50.461Z,954.23
2017-11-22T08:21:50.479Z,954.21
2017-11-22T08:22:50.498Z,954.2
2017-11-22T08:23:50.516Z,954.15
2017-11-22T08:24:50.536Z,954.11
2017-11-22T08:25:50.555Z,954.11
2017-11-22T08:26:50.574Z,954.17
2017-11-22T08:27:50.594Z,954.17
2017-11-22T08:28:50.612Z,954.17
2017-11-22T08:29:50.631Z,954.12
2017-11-22T08:30:50.651Z,954.06
2017-11-22T08:31:50.669Z,954.1
2017-11-22T08:32:50.694Z,954.1
2017-11-22T08:33:50.756Z,954.11
2017-11-22T08:34:50.729Z,954.15
2017-11-22T08:35:50.746Z,954.08
2017-11-22T08:36:50.763Z,954.13
2017-11-22T08:37:50.784Z,954.13
2017-11-22T08:38:50.803Z,954.15
2017-11-22T08:39:50.821Z,954.17
2017-11-22T08:40:50.840Z,954.14
2017-11-22T08:41:50.860Z,954.16
2017-11-22T08:42:50.879Z,954.12
2017-11-22T08:43:50.899Z,954.12
2017-11-22T08:44:50.918Z,954.12
2017-11-22T08:45:50.937Z,954.13
2017-11-22T08:46:50.958Z,954.16
2017-11-22T08:47:50.979Z,954.19
2017-11-22T08:48:50.996Z,954.19
2017-11-22T08:49:51.016Z,954.17
2017-11-22T08:50:51.086Z,954.22
2017-11-22T08:51:51.054Z,954.21
2017-11-22T08:52:51.075Z,954.2
2017-11-22T08:53:51.095Z,954.22
2017-11-22T08:54:51.115Z,954.28
2017-11-22T08:55:51.134Z,954.29
2017-11-22T08:56:51.154Z,954.27
2017-11-22T08:57:51.174Z,954.29
2017-11-22T08:58:51.194Z,954.33
2017-11-22T08:59:51.214Z,954.3
2017-11-22T09:00:51.234Z,954.28
2017-11-22T09:01:51.254Z,954.32
2017-11-22T09:02:51.275Z,954.33
2017-11-22T09:03:51.293Z,954.33
2017-11-22T09:04:51.314Z,954.36
2017-11-22T09:05:51.335Z,954.37
2017-11-22T09:06:51.354Z,954.33
2017-11-22T09:07:51.374Z,954.37
2017-11-22T09:08:51.446Z,954.35
2017-11-22T09:09:51.414Z,954.43
2017-11-22T09:10:51.436Z,954.43
2017-11-22T09:11:51.457Z,954.4
2017-11-22T09:12:51.477Z,954.45
2017-11-22T09:13:51.508Z,954.39
2017-11-22T09:14:51.518Z,954.46
2017-11-22T09:15:51.549Z,954.46
2017-11-22T09:16:51.559Z,954.51
2017-11-22T09:17:51.580Z,954.49
2017-11-22T09:18:51.603Z,954.48
2017-11-22T09:19:51.621Z,954.54
2017-11-22T09:20:51.653Z,954.45
2017-11-22T09:21:51.662Z,954.48
2017-11-22T09:22:51.682Z,954.5
2017-11-22T09:23:51.756Z,954.54
2017-11-22T09:24:51.723Z,954.55
2017-11-22T09:25:51.746Z,954.53
2017-11-22T09:26:51.768Z,954.56
2017-11-22T09:27:51.785Z,954.57
2017-11-22T09:28:51.808Z,954.56
2017-11-22T09:29:51.835Z,954.55
2017-11-22T09:30:51.850Z,954.56
2017-11-22T09:31:51.870Z,954.58
2017-11-22T09:32:51.908Z,954.52
2017-11-22T09:33:51.924Z,954.5
2017-11-22T09:34:51.933Z,954.49
2017-11-22T09:35:51.953Z,954.53
2017-11-22T09:36:51.973Z,954.52
2017-11-22T09:37:52.033Z,954.49
2017-11-22T09:38:52.068Z,954.49
2017-11-22T09:39:52.039Z,954.48
2017-11-22T09:40:52.064Z,954.5
2017-11-22T09:41:52.083Z,954.57
2017-11-22T09:42:52.102Z,954.59
2017-11-22T09:43:52.124Z,954.67
2017-11-22T09:44:52.144Z,954.68
2017-11-22T09:45:52.175Z,954.77
2017-11-22T09:46:52.187Z,954.8
2017-11-22T09:47:52.209Z,954.83
2017-11-22T09:48:52.230Z,954.82
2017-11-22T09:49:52.262Z,954.79
2017-11-22T09:50:52.286Z,954.76
2017-11-22T09:51:52.301Z,954.86
2017-11-22T09:52:52.322Z,954.86
2017-11-22T09:53:52.395Z,954.79
2017-11-22T09:54:52.369Z,954.85
2017-11-22T09:55:52.393Z,954.89
2017-11-22T09:56:52.418Z,954.82
2017-11-22T09:57:52.442Z,954.85
2017-11-22T09:58:52.467Z,954.82
2017-11-22T09:59:52.493Z,954.87
2017-11-22T10:00:52.517Z,954.78
2017-11-22T10:01:52.544Z,954.77
2017-11-22T10:02:52.570Z,954.8
2017-11-22T10:03:52.596Z,954.78
2017-11-22T10:04:52.619Z,954.78
2017-11-22T10:05:52.646Z,954.75
2017-11-22T10:06:52.673Z,954.75
2017-11-22T10:07:52.700Z,954.79
2017-11-22T10:08:52.727Z,954.85
2017-11-22T10:09:52.754Z,954.73
2017-11-22T10:10:52.781Z,954.71
2017-11-22T10:11:52.858Z,954.7
2017-11-22T10:12:52.835Z,954.69
2017-11-22T10:13:52.863Z,954.71
2017-11-22T10:14:52.891Z,954.77
2017-11-22T10:15:52.916Z,954.67
2017-11-22T10:16:52.943Z,954.63
2017-11-22T10:17:52.972Z,954.66
2017-11-22T10:18:53.000Z,954.65
2017-11-22T10:19:53.027Z,954.64
2017-11-22T10:20:53.056Z,954.64
2017-11-22T10:21:53.082Z,954.65
2017-11-22T10:22:53.111Z,954.66
2017-11-22T10:23:53.138Z,954.71
2017-11-22T10:24:53.167Z,954.61
2017-11-22T10:25:53.196Z,954.68
2017-11-22T10:26:53.223Z,954.64
2017-11-22T10:27:53.252Z,954.64
2017-11-22T10:28:53.282Z,954.62
2017-11-22T10:29:53.359Z,954.68
2017-11-22T10:30:53.338Z,954.61
2017-11-22T10:31:53.367Z,954.75
2017-11-22T10:32:53.398Z,954.63
2017-11-22T10:33:53.424Z,954.62
2017-11-22T10:34:53.456Z,954.61
2017-11-22T10:35:53.489Z,954.59
2017-11-22T10:36:53.515Z,954.58
2017-11-22T10:37:53.545Z,954.61
2017-11-22T10:38:53.573Z,954.6
2017-11-22T10:39:53.605Z,954.6
2017-11-22T10:40:53.634Z,954.63
2017-11-22T10:41:53.662Z,954.57
2017-11-22T10:42:53.691Z,954.55
2017-11-22T10:43:53.723Z,954.57
2017-11-22T10:44:53.751Z,954.59
2017-11-22T10:45:53.831Z,954.55
2017-11-22T10:46:53.813Z,954.57
2017-11-22T10:47:53.840Z,954.57
2017-11-22T10:48:53.872Z,954.56
2017-11-22T10:49:53.901Z,954.61
2017-11-22T10:50:54.136Z,954.63
2017-11-22T10:51:53.962Z,954.63
2017-11-22T10:52:53.991Z,954.59
2017-11-22T10:53:54.022Z,954.59
2017-11-22T10:54:54.053Z,954.66
2017-11-22T10:55:54.084Z,954.61
2017-11-22T10:56:54.116Z,954.57
2017-11-22T10:57:54.148Z,954.59
2017-11-22T10:58:54.182Z,954.54
2017-11-22T10:59:54.207Z,954.55
2017-11-22T11:00:54.237Z,954.58
2017-11-22T11:01:54.270Z,954.57
2017-11-22T11:02:54.306Z,954.58
2017-11-22T11:03:54.332Z,954.52
2017-11-22T11:04:54.362Z,954.6
2017-11-22T11:05:54.396Z,954.58
2017-11-22T11:06:54.427Z,954.58
2017-11-22T11:07:54.459Z,954.64
2017-11-22T11:08:54.492Z,954.7
2017-11-22T11:09:54.523Z,954.66
2017-11-22T11:10:54.555Z,954.63
2017-11-22T11:11:54.590Z,954.66
2017-11-22T11:12:54.620Z,954.68
2017-11-22T11:13:54.679Z,954.61
2017-11-22T11:14:54.688Z,954.66
2017-11-22T11:15:54.720Z,954.7
2017-11-22T11:16:54.752Z,954.64
2017-11-22T11:17:54.783Z,954.63
2017-11-22T11:18:54.816Z,954.57
2017-11-22T11:19:54.898Z,954.64
2017-11-22T11:20:54.881Z,954.63
2017-11-22T11:21:54.918Z,954.63
2017-11-22T11:22:54.946Z,954.55
2017-11-22T11:23:54.992Z,954.58
2017-11-22T11:24:55.010Z,954.56
2017-11-22T11:25:55.044Z,954.54
2017-11-22T11:26:55.079Z,954.55
2017-11-22T11:27:55.108Z,954.6
2017-11-22T11:28:55.141Z,954.6
2017-11-22T11:29:55.173Z,954.57
2017-11-22T11:30:55.205Z,954.58
2017-11-22T11:31:55.239Z,954.54
2017-11-22T11:32:55.271Z,954.61
2017-11-22T11:33:55.303Z,954.59
2017-11-22T11:34:55.387Z,954.58
2017-11-22T11:35:55.369Z,954.58
2017-11-22T11:36:55.401Z,954.67
2017-11-22T11:37:55.435Z,954.61
2017-11-22T11:38:55.467Z,954.68
2017-11-22T11:39:55.500Z,954.67
2017-11-22T11:40:55.533Z,954.66
2017-11-22T11:41:55.566Z,954.68
2017-11-22T11:42:55.606Z,954.67
2017-11-22T11:43:55.631Z,954.7
2017-11-22T11:44:55.668Z,954.7
2017-11-22T11:45:55.697Z,954.72
2017-11-22T11:46:55.733Z,954.74
2017-11-22T11:47:55.763Z,954.71
2017-11-22T11:48:55.811Z,954.72
2017-11-22T11:49:55.835Z,954.66
2017-11-22T11:50:55.862Z,954.74
2017-11-22T11:51:55.895Z,954.73
2017-11-22T11:52:55.929Z,954.75
2017-11-22T11:53:55.962Z,954.78
2017-11-22T11:54:55.995Z,954.69
2017-11-22T11:55:56.029Z,954.69
2017-11-22T11:56:56.060Z,954.67
2017-11-22T11:57:56.104Z,954.64
2017-11-22T11:58:56.129Z,954.69
2017-11-22T11:59:56.164Z,954.67
2017-11-22T12:00:56.194Z,954.69
2017-11-22T12:01:56.226Z,954.69
2017-11-22T12:02:56.265Z,954.66
2017-11-22T12:03:56.309Z,954.71
2017-11-22T12:04:56.325Z,954.71
2017-11-22T12:05:56.357Z,954.83
2017-11-22T12:06:56.389Z,954.8
2017-11-22T12:07:56.484Z,954.83
2017-11-22T12:08:56.454Z,954.77
2017-11-22T12:09:56.487Z,954.75
2017-11-22T12:10:56.520Z,954.79
2017-11-22T12:11:56.553Z,954.8
2017-11-22T12:12:56.586Z,954.83
2017-11-22T12:13:56.621Z,954.82
2017-11-22T12:14:56.651Z,954.82
2017-11-22T12:15:56.683Z,954.82
2017-11-22T12:16:56.715Z,954.79
2017-11-22T12:17:56.748Z,954.79
2017-11-22T12:18:56.782Z,954.84
2017-11-22T12:19:56.812Z,954.77
2017-11-22T12:20:56.846Z,954.75
2017-11-22T12:21:56.880Z,954.8
2017-11-22T12:22:56.911Z,954.8
2017-11-22T12:23:56.944Z,954.79
2017-11-22T12:24:57.029Z,954.75
2017-11-22T12:25:57.011Z,954.8
2017-11-22T12:26:57.042Z,954.79
2017-11-22T12:27:57.080Z,954.77
2017-11-22T12:28:57.117Z,954.79
2017-11-22T12:29:57.142Z,954.8
2017-11-22T12:30:57.173Z,954.84
2017-11-22T12:31:57.206Z,954.81